Time;durP1;ratioP1;P1;durP2;ratioP2;P2;SDS_P1;SDS_P2;PMS_P1;PMS_P2;Temp;Humidity;BMP_temperature;BMP_pressure;BME280_temperature;BME280_humidity;BME280_pressure;Samples;Min_cycle;Max_cycle;Signal;HPM_P1;HPM_P2
2023/01/31 00:01:25;;;;;;;12.35;7.13;;;;;;;2.60;78.31;97437.88;6268038;22;20027;-87
2023/01/31 00:03:54;;;;;;;16.63;7.65;;;;;;;2.59;78.60;97441.41;6273890;22;20008;-84
2023/01/31 00:06:24;;;;;;;10.23;6.57;;;;;;;2.59;78.55;97441.41;6267446;22;20352;-85
2023/01/31 00:08:52;;;;;;;11.43;6.97;;;;;;;2.58;78.90;97432.03;6257258;23;20034;-83
2023/01/31 00:11:22;;;;;;;10.23;6.82;;;;;;;2.56;78.64;97429.59;6257559;23;20012;-86
2023/01/31 00:13:51;;;;;;;12.20;6.95;;;;;;;2.54;78.53;97426.28;6257682;23;20024;-86
2023/01/31 00:16:20;;;;;;;11.57;6.57;;;;;;;2.52;78.25;97412.69;6256057;23;20059;-85
2023/01/31 00:18:49;;;;;;;10.80;6.35;;;;;;;2.52;78.36;97411.88;6255656;23;20055;-86
2023/01/31 00:21:18;;;;;;;11.18;6.88;;;;;;;2.48;78.02;97406.94;6256681;23;20024;-82
2023/01/31 00:23:47;;;;;;;8.73;5.93;;;;;;;2.46;78.40;97408.81;6257318;23;20051;-88
2023/01/31 00:26:17;;;;;;;9.18;6.50;;;;;;;2.44;78.55;97415.81;6263754;23;20035;-87
2023/01/31 00:28:46;;;;;;;11.45;6.18;;;;;;;2.43;78.26;97418.53;6261551;23;20309;-85
2023/01/31 00:31:16;;;;;;;8.80;6.22;;;;;;;2.42;78.73;97422.00;6252749;23;20070;-81
2023/01/31 00:33:46;;;;;;;13.40;6.45;;;;;;;2.43;78.67;97418.53;6252402;23;20016;-83
2023/01/31 00:36:18;;;;;;;10.20;6.53;;;;;;;2.44;78.58;97409.84;6251287;23;20119;-86
2023/01/31 00:38:48;;;;;;;10.77;6.20;;;;;;;2.43;78.24;97421.91;6249895;23;20012;-82
2023/01/31 00:41:18;;;;;;;12.82;7.32;;;;;;;2.42;78.04;97412.53;6249630;23;20016;-83
2023/01/31 00:43:46;;;;;;;9.20;5.55;;;;;;;2.42;77.93;97420.25;6249493;23;20048;-83
2023/01/31 00:46:14;;;;;;;10.23;6.05;;;;;;;2.42;78.30;97422.84;6249523;23;20016;-80
2023/01/31 00:48:43;;;;;;;8.80;5.55;;;;;;;2.44;78.59;97423.53;6248191;23;20075;-81
2023/01/31 00:51:11;;;;;;;8.60;6.35;;;;;;;2.46;78.31;97421.69;6247784;23;20035;-82
2023/01/31 00:53:40;;;;;;;11.73;6.78;;;;;;;2.50;78.90;97418.91;6247831;23;20024;-80
2023/01/31 00:56:11;;;;;;;8.10;5.50;;;;;;;2.50;78.37;97430.03;6248345;23;20074;-84
2023/01/31 00:58:39;;;;;;;12.85;6.57;;;;;;;2.52;78.09;97432.50;6248369;23;20023;-84
2023/01/31 01:01:09;;;;;;;10.43;6.18;;;;;;;2.54;78.56;97436.59;6248476;23;20031;-82
2023/01/31 01:03:38;;;;;;;8.82;6.15;;;;;;;2.57;78.60;97440.69;6248562;23;20338;-83
2023/01/31 01:06:08;;;;;;;12.55;6.47;;;;;;;2.60;78.86;97430.16;6248584;23;20020;-80
2023/01/31 01:08:37;;;;;;;9.40;5.85;;;;;;;2.61;78.76;97431.81;6248487;23;20464;-83
2023/01/31 01:11:09;;;;;;;9.80;6.47;;;;;;;2.62;78.91;97425.72;6248025;23;20020;-80
2023/01/31 01:13:37;;;;;;;10.95;6.35;;;;;;;2.63;78.99;97428.19;6246855;23;20095;-85
2023/01/31 01:16:06;;;;;;;17.10;5.20;;;;;;;2.63;78.24;97429.94;6249300;23;20026;-83
2023/01/31 01:18:35;;;;;;;10.73;5.68;;;;;;;2.63;78.46;97427.38;6246952;23;20024;-80
2023/01/31 01:21:08;;;;;;;8.38;5.72;;;;;;;2.62;78.28;97431.72;6247005;23;20016;-81
2023/01/31 01:23:37;;;;;;;11.95;5.88;;;;;;;2.62;78.43;97429.13;6248433;23;20031;-80
2023/01/31 01:26:12;;;;;;;10.45;5.93;;;;;;;2.61;78.45;97442.13;6248603;23;20016;-80
2023/01/31 01:28:40;;;;;;;10.18;5.93;;;;;;;2.63;78.69;97437.69;6248893;23;20047;-81
2023/01/31 01:31:10;;;;;;;8.95;5.63;;;;;;;2.65;78.88;97438.41;6248503;23;20024;-80
2023/01/31 01:33:38;;;;;;;10.25;5.72;;;;;;;2.65;78.66;97449.50;6249116;23;20023;-80
2023/01/31 01:36:12;;;;;;;8.80;5.78;;;;;;;2.66;78.25;97442.59;6247953;23;20023;-82
2023/01/31 01:38:40;;;;;;;9.15;5.80;;;;;;;2.65;78.78;97446.94;6248463;23;20024;-80
2023/01/31 01:41:11;;;;;;;7.90;5.45;;;;;;;2.66;78.68;97443.41;6248401;23;20104;-80
2023/01/31 01:43:41;;;;;;;10.10;7.20;;;;;;;2.65;78.50;97438.41;6248752;23;20026;-81
2023/01/31 01:46:13;;;;;;;10.68;5.95;;;;;;;2.63;78.32;97441.06;6248429;23;20020;-80
2023/01/31 01:48:43;;;;;;;7.28;5.35;;;;;;;2.64;78.47;97441.88;6246895;23;20026;-80
2023/01/31 01:51:13;;;;;;;10.50;6.60;;;;;;;2.63;78.21;97448.81;6245764;23;20031;-82
2023/01/31 01:53:44;;;;;;;10.65;5.38;;;;;;;2.62;77.90;97448.91;6219504;23;20089;-83
2023/01/31 01:56:19;;;;;;;8.68;5.35;;;;;;;2.62;78.65;97456.63;6247318;23;20024;-81
2023/01/31 01:58:54;;;;;;;11.65;5.70;;;;;;;2.63;78.74;97445.41;6247879;23;20016;-80
2023/01/31 02:01:24;;;;;;;8.65;5.43;;;;;;;2.63;78.63;97448.81;6248680;23;20098;-80
2023/01/31 02:03:53;;;;;;;14.38;5.93;;;;;;;2.62;78.11;97454.06;6246545;23;20313;-81
2023/01/31 02:06:22;;;;;;;9.77;5.38;;;;;;;2.61;78.25;97457.56;6247612;23;20111;-82
2023/01/31 02:08:50;;;;;;;10.27;5.88;;;;;;;2.62;78.15;97459.19;6246762;23;20051;-80
2023/01/31 02:11:24;;;;;;;10.95;5.50;;;;;;;2.61;77.99;97462.72;6248423;23;20012;-81
2023/01/31 02:13:57;;;;;;;10.82;5.55;;;;;;;2.60;78.44;97471.38;6248890;23;20066;-81
2023/01/31 02:16:25;;;;;;;12.30;5.88;;;;;;;2.61;78.38;97470.47;6248074;23;20048;-81
2023/01/31 02:18:54;;;;;;;9.43;5.07;;;;;;;2.62;78.35;97474.66;6246807;23;20020;-85
2023/01/31 02:21:56;;;;;;;10.13;5.90;;;;;;;2.60;77.81;97466.22;6248848;23;20047;-80
2023/01/31 02:24:55;;;;;;;12.95;6.60;;;;;;;2.61;78.25;97473.03;6250277;23;20020;-81
2023/01/31 02:27:44;;;;;;;9.95;5.10;;;;;;;2.61;78.13;97476.41;6250499;23;20456;-80
2023/01/31 02:30:42;;;;;;;10.18;5.78;;;;;;;2.61;78.37;97468.69;6249309;23;20095;-81
2023/01/31 02:33:21;;;;;;;7.70;4.88;;;;;;;2.61;77.53;97471.28;6249678;23;20020;-82
2023/01/31 02:35:58;;;;;;;9.02;5.35;;;;;;;2.59;78.11;97465.41;6248945;23;20012;-80
2023/01/31 02:38:39;;;;;;;11.98;5.63;;;;;;;2.59;78.59;97465.41;6248476;23;20091;-81
2023/01/31 02:41:16;;;;;;;11.20;5.93;;;;;;;2.61;78.52;97460.16;6248870;23;20524;-80
2023/01/31 02:46:43;;;;;;;;;;;;;;;2.66;78.95;97460.63;6250046;23;20016;-80
2023/01/31 02:49:33;;;;;;;8.30;4.57;;;;;;;2.64;78.57;97454.75;6247359;23;19926;-79
2023/01/31 02:52:16;;;;;;;8.05;4.82;;;;;;;2.63;77.31;97455.72;6249267;23;20016;-81
2023/01/31 02:57:41;;;;;;;8.93;4.75;;;;;;;2.58;77.34;97465.50;6248692;23;20048;-80
2023/01/31 03:00:11;;;;;;;8.95;4.88;;;;;;;2.55;77.00;97478.63;6250830;23;20056;-83
2023/01/31 03:02:39;;;;;;;10.23;4.85;;;;;;;2.54;76.79;97480.38;6250875;23;20035;-81
2023/01/31 03:05:12;;;;;;;9.10;4.63;;;;;;;2.53;76.68;97475.31;6249083;23;20016;-83
2023/01/31 03:07:42;;;;;;;10.18;4.80;;;;;;;2.52;76.63;97481.44;6250758;23;20012;-81
2023/01/31 03:10:22;;;;;;;11.43;5.38;;;;;;;2.52;77.54;97482.25;6249080;23;20020;-80
2023/01/31 03:13:02;;;;;;;17.42;6.05;;;;;;;2.56;77.42;97485.41;6250719;23;20024;-81
2023/01/31 03:18:41;;;;;;;10.63;5.63;;;;;;;2.57;76.92;97492.22;6252115;23;20031;-86
2023/01/31 03:21:14;;;;;;;9.00;4.55;;;;;;;2.58;77.31;97486.13;6270787;23;20020;-86
2023/01/31 03:23:48;;;;;;;9.43;5.05;;;;;;;2.57;76.82;97484.47;6265359;23;20016;-81
2023/01/31 03:26:18;;;;;;;8.25;4.32;;;;;;;2.56;77.10;97487.97;6247189;23;20016;-80
2023/01/31 03:28:53;;;;;;;8.77;4.60;;;;;;;2.58;77.79;97483.53;6247854;23;20012;-82
2023/01/31 03:31:24;;;;;;;7.53;4.75;;;;;;;2.59;77.86;97482.63;6250573;23;20563;-84
2023/01/31 03:33:56;;;;;;;9.38;4.90;;;;;;;2.59;77.23;97490.34;6249468;23;20024;-80
2023/01/31 03:36:31;;;;;;;9.10;4.70;;;;;;;2.58;78.30;97499.84;6249934;23;20103;-81
2023/01/31 03:39:09;;;;;;;8.57;4.50;;;;;;;2.61;78.03;97509.09;6247726;23;20440;-82
2023/01/31 03:41:46;;;;;;;9.15;4.38;;;;;;;2.62;77.67;97511.56;6217104;22;20027;-78
2023/01/31 03:44:20;;;;;;;12.80;6.40;;;;;;;2.63;77.04;97514.97;6217019;23;20103;-78
2023/01/31 03:46:51;;;;;;;9.98;5.68;;;;;;;2.65;77.20;97518.25;6216236;23;20021;-78
2023/01/31 03:49:21;;;;;;;8.57;5.05;;;;;;;2.66;77.61;97518.13;6214451;23;20312;-78
2023/01/31 03:51:54;;;;;;;9.95;4.20;;;;;;;2.69;77.92;97514.53;6244543;23;20046;-78
2023/01/31 03:54:26;;;;;;;11.70;5.38;;;;;;;2.67;77.00;97513.81;6245867;23;20027;-78
2023/01/31 03:56:58;;;;;;;6.88;4.57;;;;;;;2.66;76.76;97515.53;6245303;23;20056;-78
2023/01/31 03:59:29;;;;;;;10.55;3.88;;;;;;;2.66;75.91;97515.53;6245268;23;20056;-78
2023/01/31 04:02:01;;;;;;;11.50;4.35;;;;;;;2.66;76.42;97522.47;6245875;23;20021;-78
2023/01/31 04:04:32;;;;;;;8.87;4.70;;;;;;;2.68;76.92;97520.59;6245336;23;20074;-78
2023/01/31 04:07:01;;;;;;;10.90;4.85;;;;;;;2.68;76.82;97520.59;6245574;23;20059;-78
2023/01/31 04:09:29;;;;;;;12.10;5.13;;;;;;;2.70;77.32;97528.22;6244732;23;20020;-78
2023/01/31 04:11:59;;;;;;;8.38;4.55;;;;;;;2.70;77.40;97531.63;6245486;23;20024;-77
2023/01/31 04:14:27;;;;;;;9.10;4.30;;;;;;;2.70;77.57;97539.34;6245301;23;20020;-78
2023/01/31 04:16:55;;;;;;;7.35;4.10;;;;;;;2.70;77.16;97547.06;6245054;23;20356;-78
2023/01/31 04:19:22;;;;;;;8.70;5.13;;;;;;;2.67;76.57;97544.72;6245856;23;20102;-78
2023/01/31 04:21:50;;;;;;;8.57;4.72;;;;;;;2.70;77.37;97548.84;6245832;23;20020;-78
2023/01/31 04:24:19;;;;;;;11.95;5.05;;;;;;;2.72;77.50;97547.78;6246050;23;20056;-78
2023/01/31 04:26:46;;;;;;;14.32;5.40;;;;;;;2.76;77.77;97545.81;6245078;23;20024;-78
2023/01/31 04:29:14;;;;;;;9.48;4.90;;;;;;;2.79;78.00;97545.59;6244704;23;20016;-78
2023/01/31 04:31:42;;;;;;;7.22;4.80;;;;;;;2.77;77.56;97537.97;6244799;23;20498;-78
2023/01/31 04:34:09;;;;;;;8.77;4.65;;;;;;;2.78;77.40;97538.81;6245490;23;20074;-78
2023/01/31 04:36:38;;;;;;;9.23;5.18;;;;;;;2.78;77.48;97534.47;6245159;23;20020;-78
2023/01/31 04:39:05;;;;;;;13.30;5.15;;;;;;;2.79;77.30;97538.69;6244321;23;20022;-78
2023/01/31 04:41:34;;;;;;;8.95;4.80;;;;;;;2.77;76.60;97543.13;6244643;23;20050;-78
2023/01/31 04:44:02;;;;;;;9.45;4.70;;;;;;;2.75;76.53;97546.75;6245700;23;20100;-78
2023/01/31 04:46:29;;;;;;;7.78;4.65;;;;;;;2.74;77.03;97545.94;6244807;23;20055;-78
2023/01/31 04:48:57;;;;;;;7.15;4.50;;;;;;;2.72;77.01;97549.56;6244075;23;20020;-78
2023/01/31 04:51:25;;;;;;;7.85;4.25;;;;;;;2.72;77.35;97555.50;6244309;23;20056;-78
2023/01/31 04:53:52;;;;;;;16.65;5.28;;;;;;;2.72;77.22;97558.09;6245427;23;20048;-78
2023/01/31 04:56:21;;;;;;;14.75;4.97;;;;;;;2.73;77.32;97564.88;6244367;23;20295;-78
2023/01/31 04:58:50;;;;;;;11.70;5.10;;;;;;;2.73;76.93;97567.44;6244243;23;20017;-78
2023/01/31 05:01:17;;;;;;;8.23;4.28;;;;;;;2.73;76.44;97564.06;6245013;23;20027;-78
2023/01/31 05:03:45;;;;;;;8.35;4.93;;;;;;;2.72;77.10;97563.25;6244659;23;20535;-78
2023/01/31 05:06:12;;;;;;;11.32;5.07;;;;;;;2.74;77.34;97560.56;6244377;23;20020;-78
2023/01/31 05:08:40;;;;;;;10.45;4.85;;;;;;;2.75;77.48;97557.88;6242895;23;20287;-78
2023/01/31 05:11:08;;;;;;;8.60;4.65;;;;;;;2.75;76.63;97551.91;6244991;23;20058;-78
2023/01/31 05:13:37;;;;;;;15.82;6.05;;;;;;;2.74;75.74;97545.09;6244376;23;20094;-78
2023/01/31 05:16:08;;;;;;;8.60;4.60;;;;;;;2.74;76.63;97545.94;6245237;23;20102;-78
2023/01/31 05:18:36;;;;;;;15.35;4.93;;;;;;;2.76;77.11;97549.22;6243734;23;20020;-78
2023/01/31 05:21:05;;;;;;;11.38;5.28;;;;;;;2.78;77.04;97543.97;6244678;23;20195;-78
2023/01/31 05:23:33;;;;;;;15.43;5.63;;;;;;;2.77;76.69;97545.69;6245323;23;20111;-78
2023/01/31 05:26:00;;;;;;;10.25;5.18;;;;;;;2.76;76.57;97538.91;6244642;23;20047;-78
2023/01/31 05:28:28;;;;;;;12.25;4.85;;;;;;;2.76;77.22;97538.91;6244315;23;20024;-78
2023/01/31 05:31:02;;;;;;;12.88;5.38;;;;;;;2.77;77.54;97532.81;6243612;23;20074;-78
2023/01/31 05:33:32;;;;;;;11.20;5.13;;;;;;;2.78;77.29;97537.06;6244653;23;20016;-78
2023/01/31 05:36:00;;;;;;;11.18;5.35;;;;;;;2.76;77.12;97538.91;6245026;23;20024;-78
2023/01/31 05:38:27;;;;;;;9.80;5.05;;;;;;;2.76;77.21;97544.06;6243213;23;20099;-78
2023/01/31 05:40:55;;;;;;;14.98;5.53;;;;;;;2.73;76.21;97544.25;6244362;23;20107;-78
2023/01/31 05:43:22;;;;;;;16.58;6.43;;;;;;;2.74;76.85;97550.25;6244989;23;20401;-78
2023/01/31 05:45:50;;;;;;;11.10;5.20;;;;;;;2.74;76.87;97548.50;6244297;23;20368;-78
2023/01/31 05:48:18;;;;;;;11.43;5.43;;;;;;;2.75;76.61;97552.72;6244718;23;20027;-78
2023/01/31 05:50:49;;;;;;;7.43;5.28;;;;;;;2.75;76.29;97547.56;6243208;23;20070;-77
2023/01/31 05:53:17;;;;;;;11.55;6.40;;;;;;;2.74;76.41;97547.69;6244128;23;20043;-77
2023/01/31 05:55:45;;;;;;;11.57;5.35;;;;;;;2.74;77.14;97545.09;6244068;23;20492;-78
2023/01/31 05:58:12;;;;;;;9.23;5.18;;;;;;;2.74;76.72;97558.81;6243299;23;20027;-78
2023/01/31 06:00:40;;;;;;;14.32;5.53;;;;;;;2.73;76.22;97570.03;6244738;23;20016;-78
2023/01/31 06:03:08;;;;;;;17.30;4.93;;;;;;;2.73;76.55;97566.63;6244884;23;20095;-78
2023/01/31 06:05:36;;;;;;;13.27;5.35;;;;;;;2.75;77.26;97562.19;6217637;23;20075;-78
2023/01/31 06:08:05;;;;;;;10.68;5.13;;;;;;;2.75;77.02;97563.00;6243202;23;20631;-78
2023/01/31 06:10:32;;;;;;;8.98;5.13;;;;;;;2.76;77.06;97564.69;6243551;23;20016;-79
2023/01/31 06:13:00;;;;;;;9.65;5.57;;;;;;;2.77;77.62;97557.75;6244181;23;20102;-78
2023/01/31 06:15:28;;;;;;;10.27;5.25;;;;;;;2.77;77.30;97560.34;6244380;23;20024;-77
2023/01/31 06:17:55;;;;;;;9.30;5.43;;;;;;;2.76;77.41;97551.78;6243632;23;20031;-76
2023/01/31 06:20:23;;;;;;;14.75;7.07;;;;;;;2.75;76.79;97560.44;6244361;23;20099;-77
2023/01/31 06:22:50;;;;;;;15.13;7.13;;;;;;;2.74;76.79;97560.56;6243973;23;20099;-77
2023/01/31 06:25:19;;;;;;;15.70;6.47;;;;;;;2.73;77.13;97562.31;6244178;23;20026;-77
2023/01/31 06:27:47;;;;;;;15.35;6.68;;;;;;;2.73;76.85;97559.72;6243398;23;20486;-76
2023/01/31 06:30:15;;;;;;;16.20;6.53;;;;;;;2.72;77.34;97552.94;6248881;23;20091;-77
2023/01/31 06:32:42;;;;;;;15.93;6.72;;;;;;;2.71;76.72;97556.44;6254825;23;20032;-77
2023/01/31 06:35:10;;;;;;;15.43;7.22;;;;;;;2.69;77.66;97558.31;6250434;23;20072;-78
2023/01/31 06:37:37;;;;;;;16.52;7.70;;;;;;;2.69;77.14;97560.91;6244807;23;20019;-77
2023/01/31 06:40:06;;;;;;;15.10;6.07;;;;;;;2.67;76.10;97560.19;6243525;23;20020;-78
2023/01/31 06:42:35;;;;;;;11.70;5.32;;;;;;;2.63;75.49;97563.91;6244862;23;20126;-78
2023/01/31 06:45:02;;;;;;;11.68;5.57;;;;;;;2.59;75.18;97562.47;6244914;23;20043;-78
2023/01/31 06:47:30;;;;;;;12.68;4.80;;;;;;;2.58;76.18;97563.38;6245133;23;20047;-77
2023/01/31 06:49:59;;;;;;;10.35;5.47;;;;;;;2.56;75.78;97566.09;6243709;23;20023;-78
2023/01/31 06:52:27;;;;;;;15.32;6.32;;;;;;;2.54;76.46;97570.53;6244598;23;20091;-77
2023/01/31 06:54:55;;;;;;;15.35;5.93;;;;;;;2.52;76.11;97576.72;6245133;23;20020;-79
2023/01/31 06:57:22;;;;;;;10.05;5.00;;;;;;;2.50;76.95;97574.25;6244333;23;20048;-78
2023/01/31 06:59:51;;;;;;;8.48;5.15;;;;;;;2.50;76.72;97576.00;6242954;23;20023;-77
2023/01/31 07:02:19;;;;;;;11.82;5.03;;;;;;;2.51;76.97;97585.34;6244647;23;20103;-78
2023/01/31 07:04:47;;;;;;;9.55;5.35;;;;;;;2.48;77.37;97587.22;6244579;23;20024;-78
2023/01/31 07:07:17;;;;;;;11.13;6.18;;;;;;;2.49;77.68;97582.88;6244065;23;20016;-77
2023/01/31 07:09:45;;;;;;;13.13;5.32;;;;;;;2.48;77.63;97584.63;6244909;23;20459;-78
2023/01/31 07:12:13;;;;;;;16.20;5.10;;;;;;;2.47;77.55;97588.16;6246288;23;20091;-78
2023/01/31 07:14:41;;;;;;;9.65;4.85;;;;;;;2.46;77.69;97589.06;6245288;23;20479;-78
2023/01/31 07:17:10;;;;;;;10.50;4.70;;;;;;;2.45;77.99;97584.88;6244474;23;20039;-78
2023/01/31 07:19:37;;;;;;;11.70;5.13;;;;;;;2.46;78.29;97583.91;6244181;23;20028;-78
2023/01/31 07:22:05;;;;;;;12.38;4.93;;;;;;;2.47;77.99;97571.84;6244460;23;20023;-78
2023/01/31 07:24:33;;;;;;;11.50;5.15;;;;;;;2.47;78.05;97587.31;6237896;23;20710;-78
2023/01/31 07:27:01;;;;;;;9.07;4.53;;;;;;;2.50;77.72;97578.56;6237383;23;20027;-79
2023/01/31 07:29:28;;;;;;;11.40;5.20;;;;;;;2.49;77.82;97570.00;6243946;23;20456;-78
2023/01/31 07:31:56;;;;;;;10.48;4.30;;;;;;;2.52;77.67;97576.72;6244875;23;20024;-79
2023/01/31 07:34:25;;;;;;;7.63;4.85;;;;;;;2.51;76.96;97563.00;6243234;23;20027;-79
2023/01/31 07:36:53;;;;;;;8.57;4.82;;;;;;;2.53;77.17;97555.97;6241460;23;20024;-78
2023/01/31 07:39:20;;;;;;;12.38;4.35;;;;;;;2.55;76.87;97555.88;6244578;23;20074;-78
2023/01/31 07:41:48;;;;;;;11.27;4.80;;;;;;;2.57;77.70;97548.88;6244821;23;20022;-78
2023/01/31 07:44:15;;;;;;;12.77;5.35;;;;;;;2.59;78.00;97552.16;6244825;23;20350;-78
2023/01/31 07:46:43;;;;;;;14.07;5.35;;;;;;;2.62;77.06;97546.78;6240295;23;20369;-78
2023/01/31 07:49:11;;;;;;;10.05;4.53;;;;;;;2.62;76.63;97551.94;6241982;23;20020;-77
2023/01/31 07:51:41;;;;;;;11.48;4.97;;;;;;;2.62;75.91;97557.09;6246344;23;20377;-78
2023/01/31 07:54:10;;;;;;;10.20;5.35;;;;;;;2.60;75.61;97553.78;6244784;23;20024;-78
2023/01/31 07:56:38;;;;;;;14.05;4.95;;;;;;;2.59;75.34;97552.16;6245625;23;20099;-77
2023/01/31 07:59:06;;;;;;;7.82;4.43;;;;;;;2.59;75.75;97552.97;6243635;23;20056;-77
2023/01/31 08:04:19;;;;;;;10.57;5.55;;;;;;;2.60;75.45;97557.22;6245380;23;20097;-77
2023/01/31 08:06:53;;;;;;;13.63;5.05;;;;;;;2.57;74.78;97562.56;6245726;23;20087;-77
2023/01/31 08:09:21;;;;;;;11.68;5.75;;;;;;;2.51;74.73;97555.25;6246118;23;20030;-77
2023/01/31 08:11:49;;;;;;;14.05;5.35;;;;;;;2.48;74.72;97560.66;6246150;23;20023;-78
2023/01/31 08:14:16;;;;;;;15.48;5.95;;;;;;;2.45;74.41;97564.25;6246232;23;20102;-78
2023/01/31 08:16:44;;;;;;;11.93;5.60;;;;;;;2.43;75.02;97567.88;6245717;23;20035;-78
2023/01/31 08:19:11;;;;;;;8.75;4.93;;;;;;;2.45;74.97;97577.13;6243485;23;20031;-78
2023/01/31 08:21:39;;;;;;;12.02;5.43;;;;;;;2.47;74.75;97577.84;6244882;23;20070;-77
2023/01/31 08:24:09;;;;;;;12.40;5.47;;;;;;;2.49;74.86;97572.56;6244960;23;20051;-78
2023/01/31 08:26:36;;;;;;;11.10;5.78;;;;;;;2.52;75.14;97571.56;6245403;23;20047;-78
2023/01/31 08:29:04;;;;;;;10.40;4.72;;;;;;;2.55;75.52;97577.31;6244390;23;20032;-78
2023/01/31 08:31:32;;;;;;;10.77;4.90;;;;;;;2.61;75.86;97571.72;6244206;23;20024;-78
2023/01/31 08:34:00;;;;;;;12.30;5.60;;;;;;;2.71;76.34;97592.50;6211190;23;20649;-79
2023/01/31 08:36:31;;;;;;;11.52;5.20;;;;;;;2.77;75.84;97586.09;6210190;23;20020;-79
2023/01/31 08:38:59;;;;;;;10.65;5.03;;;;;;;2.81;75.08;97590.94;6223590;23;20024;-77
2023/01/31 08:41:29;;;;;;;13.07;4.93;;;;;;;2.88;74.81;97599.03;6246553;23;20020;-78
2023/01/31 08:43:58;;;;;;;12.23;5.20;;;;;;;2.93;74.78;97601.28;6250848;23;20020;-78
2023/01/31 08:46:29;;;;;;;13.90;6.57;;;;;;;2.94;75.33;97603.78;6247072;23;20028;-78
2023/01/31 08:48:57;;;;;;;7.90;4.63;;;;;;;2.94;74.90;97602.94;6244032;23;20070;-78
2023/01/31 08:51:25;;;;;;;9.60;5.15;;;;;;;2.95;74.96;97599.44;6244157;23;20074;-77
2023/01/31 08:53:54;;;;;;;11.40;5.53;;;;;;;2.99;75.24;97595.72;6244910;23;20468;-79
2023/01/31 08:56:24;;;;;;;11.35;5.20;;;;;;;3.02;74.39;97592.94;6245142;23;20028;-78
2023/01/31 08:58:57;;;;;;;10.75;6.25;;;;;;;3.05;74.60;97590.13;6246949;23;20071;-79
2023/01/31 09:01:25;;;;;;;16.42;5.82;;;;;;;3.08;74.41;97595.88;6259601;23;20008;-79
2023/01/31 09:03:55;;;;;;;11.05;5.15;;;;;;;3.08;74.54;97605.34;6269648;23;20027;-79
2023/01/31 09:06:25;;;;;;;11.23;5.53;;;;;;;3.07;74.06;97604.53;6268731;23;20072;-80
2023/01/31 09:08:55;;;;;;;12.00;5.30;;;;;;;3.09;74.70;97604.44;6262547;23;20020;-78
2023/01/31 09:11:23;;;;;;;15.18;6.15;;;;;;;3.09;74.08;97601.84;6252040;23;20020;-77
2023/01/31 09:13:50;;;;;;;10.68;5.38;;;;;;;3.06;74.11;97602.91;6245925;23;20020;-77
2023/01/31 09:16:20;;;;;;;13.57;5.47;;;;;;;3.06;73.58;97599.47;6245438;23;20026;-77
2023/01/31 09:18:48;;;;;;;8.88;4.30;;;;;;;3.08;73.15;97601.03;6245511;23;20031;-77
2023/01/31 09:21:17;;;;;;;15.77;5.22;;;;;;;3.11;73.02;97600.00;6248750;23;20068;-77
2023/01/31 09:23:46;;;;;;;12.20;5.65;;;;;;;3.14;73.72;97599.75;6245566;23;20016;-77
2023/01/31 09:26:14;;;;;;;11.32;5.10;;;;;;;3.18;74.07;97596.03;6244357;23;20043;-78
2023/01/31 09:28:44;;;;;;;18.85;6.53;;;;;;;3.23;73.75;97604.25;6243426;23;20048;-77
2023/01/31 09:31:13;;;;;;;22.00;8.88;;;;;;;3.29;74.00;97597.84;6244181;23;20103;-77
2023/01/31 09:33:42;;;;;;;9.90;4.93;;;;;;;3.35;74.01;97599.97;6244197;23;20024;-77
2023/01/31 09:36:11;;;;;;;16.45;5.95;;;;;;;3.41;74.36;97601.25;6244342;23;20063;-77
2023/01/31 09:38:40;;;;;;;17.77;5.82;;;;;;;3.45;74.33;97597.53;6242807;23;20024;-77
2023/01/31 09:41:16;;;;;;;12.98;6.40;;;;;;;3.47;74.21;97587.91;6244218;23;20337;-77
2023/01/31 09:43:50;;;;;;;11.60;5.18;;;;;;;3.50;73.21;97595.44;6243923;23;20464;-78
2023/01/31 09:46:23;;;;;;;10.68;4.78;;;;;;;3.52;73.02;97598.75;6243611;23;20059;-77
2023/01/31 09:48:55;;;;;;;9.50;4.93;;;;;;;3.58;73.72;97605.19;6243276;23;20051;-77
2023/01/31 09:51:23;;;;;;;10.98;4.70;;;;;;;3.61;72.98;97608.38;6243509;23;20024;-77
2023/01/31 09:53:51;;;;;;;11.50;4.70;;;;;;;3.64;72.88;97591.84;6244613;23;20024;-77
2023/01/31 09:56:25;;;;;;;11.23;4.28;;;;;;;3.67;73.07;97591.59;6244141;23;20352;-77
2023/01/31 09:58:58;;;;;;;9.55;4.80;;;;;;;3.72;73.31;97590.34;6243472;23;20106;-76
2023/01/31 10:01:32;;;;;;;12.65;4.55;;;;;;;3.78;73.79;97589.03;6242941;23;20399;-78
2023/01/31 10:04:24;;;;;;;9.70;4.72;;;;;;;3.83;72.21;97586.16;6244293;23;20020;-77
2023/01/31 10:06:58;;;;;;;9.48;5.70;;;;;;;3.86;72.82;97591.06;6243737;23;20103;-77
2023/01/31 10:09:32;;;;;;;9.57;5.07;;;;;;;3.91;73.09;97589.78;6242380;23;20096;-77
2023/01/31 10:12:03;;;;;;;11.20;5.45;;;;;;;3.96;73.53;97592.03;6243690;23;20020;-78
2023/01/31 10:14:37;;;;;;;15.10;4.63;;;;;;;3.97;73.35;97577.34;6243524;23;20534;-77
2023/01/31 10:17:11;;;;;;;7.68;4.47;;;;;;;3.95;72.09;97577.47;6243880;23;20229;-76
2023/01/31 10:19:47;;;;;;;10.18;4.22;;;;;;;3.98;72.04;97587.56;6242629;23;20023;-78
2023/01/31 10:22:20;;;;;;;11.55;5.40;;;;;;;4.03;70.48;97588.03;6244355;23;20052;-77
2023/01/31 10:24:52;;;;;;;15.93;6.53;;;;;;;4.07;71.41;97591.22;6244372;23;20490;-78
2023/01/31 10:27:42;;;;;;;12.15;4.45;;;;;;;4.10;70.42;97599.53;6243946;23;20402;-76
2023/01/31 10:30:17;;;;;;;12.13;4.30;;;;;;;4.07;69.39;97599.78;6242786;23;20476;-77
2023/01/31 10:32:50;;;;;;;10.95;4.38;;;;;;;4.05;69.74;97600.84;6243481;23;20016;-77
2023/01/31 10:35:25;;;;;;;13.18;4.35;;;;;;;4.03;69.31;97598.34;6243737;23;20020;-77
2023/01/31 10:37:55;;;;;;;8.65;4.30;;;;;;;4.06;69.25;97597.31;6242631;23;20020;-77
2023/01/31 10:40:28;;;;;;;13.32;4.38;;;;;;;4.10;68.99;97578.06;6243089;23;20051;-77
2023/01/31 10:43:00;;;;;;;13.32;5.05;;;;;;;4.15;69.90;97567.38;6244133;23;20016;-76
2023/01/31 10:45:29;;;;;;;11.70;4.75;;;;;;;4.23;70.44;97557.28;6245122;23;20555;-78
2023/01/31 10:48:08;;;;;;;10.68;3.80;;;;;;;4.32;69.24;97552.22;6240469;22;20906;-79
2023/01/31 10:50:49;;;;;;;8.13;4.25;;;;;;;4.48;69.88;97545.84;6220261;23;20527;-79
2023/01/31 10:53:35;;;;;;;11.18;4.15;;;;;;;4.54;69.80;97537.63;6237873;23;20020;-83
2023/01/31 10:56:07;;;;;;;14.32;4.03;;;;;;;4.58;68.89;97530.47;6243567;23;20055;-80
2023/01/31 10:58:37;;;;;;;6.83;3.90;;;;;;;4.60;68.22;97526.00;6234580;23;20016;-82
2023/01/31 11:01:10;;;;;;;14.27;3.85;;;;;;;4.65;68.15;97508.34;6221738;23;20028;-79
2023/01/31 11:03:39;;;;;;;8.68;3.75;;;;;;;4.69;67.62;97507.97;6220292;23;20025;-79
2023/01/31 11:06:12;;;;;;;14.95;4.13;;;;;;;4.75;69.52;97522.19;6219899;23;20024;-80
2023/01/31 11:08:48;;;;;;;8.32;3.22;;;;;;;4.81;67.64;97524.28;6218692;23;20495;-79
2023/01/31 11:22:30;;;;;;;18.45;6.00;;;;;;;5.09;66.44;97524.63;6228238;23;20024;-81
2023/01/31 11:25:23;;;;;;;11.27;4.00;;;;;;;5.23;65.42;97520.94;6241044;23;20008;-82
2023/01/31 11:27:55;;;;;;;8.65;3.45;;;;;;;5.39;65.88;97510.16;6227683;23;20027;-79
2023/01/31 11:30:27;;;;;;;11.35;3.67;;;;;;;5.78;64.38;97495.66;6222092;23;20024;-80
2023/01/31 11:32:57;;;;;;;8.57;3.97;;;;;;;6.30;64.36;97498.19;6220985;23;20043;-79
2023/01/31 11:35:32;;;;;;;8.93;3.67;;;;;;;6.84;63.36;97490.88;6218621;23;20075;-79
2023/01/31 11:38:22;;;;;;;12.10;3.92;;;;;;;6.94;61.44;97494.31;6218297;23;20016;-79
2023/01/31 11:40:53;;;;;;;6.40;3.33;;;;;;;6.89;62.22;97491.31;6217579;23;20033;-80
2023/01/31 11:43:27;;;;;;;6.22;2.92;;;;;;;6.83;60.68;97502.22;6217856;23;20047;-80
2023/01/31 11:46:02;;;;;;;7.03;3.10;;;;;;;6.85;61.37;97501.13;6220641;23;20017;-78
2023/01/31 11:48:41;;;;;;;8.52;4.13;;;;;;;6.78;59.95;97502.63;6216799;23;20479;-79
2023/01/31 11:51:13;;;;;;;12.85;3.65;;;;;;;6.60;60.78;97498.09;6216480;23;20338;-80
2023/01/31 11:53:48;;;;;;;8.27;3.33;;;;;;;6.49;62.03;97480.06;6217173;23;20526;-79
2023/01/31 11:56:22;;;;;;;9.05;3.28;;;;;;;6.37;60.81;97471.59;6217861;23;20020;-81
2023/01/31 11:58:55;;;;;;;7.65;3.53;;;;;;;6.52;62.06;97459.06;6217189;23;20020;-81
2023/01/31 12:42:54;;;;;;;13.57;2.97;;;;;;;5.70;61.30;97378.97;6233562;22;20050;31
2023/01/31 15:25:06;;;;;;;2.78;2.08;;;;;;;4.32;66.04;97344.78;6230582;22;20018;-76
2023/01/31 15:30:30;;;;;;;10.57;3.75;;;;;;;4.34;65.25;97354.03;6307943;22;20023;-79
2023/01/31 15:33:07;;;;;;;13.30;2.95;;;;;;;4.33;66.37;97349.00;6308936;22;20022;-79
2023/01/31 15:35:43;;;;;;;5.38;2.58;;;;;;;4.31;65.48;97343.97;6308670;22;20474;-79
2023/01/31 15:40:43;;;;;;;6.15;2.60;;;;;;;4.29;65.74;97329.53;6247044;23;20024;-80
2023/01/31 15:54:20;;;;;;;5.15;2.78;;;;;;;4.16;66.88;97350.34;5927780;24;20029;-80